Time;durP1;ratioP1;P1;durP2;ratioP2;P2;SDS_P1;SDS_P2;PMS_P1;PMS_P2;Temp;Humidity;BMP_temperature;BMP_pressure;BME280_temperature;BME280_humidity;BME280_pressure;Samples;Min_cycle;Max_cycle;Signal;HPM_P1;HPM_P2
2022/03/07 00:01:09;;;;;;;15.52;4.32;;;1.90;99.90;;;;;;4845785;29;20449;-92
2022/03/07 00:03:35;;;;;;;17.35;4.32;;;1.80;99.90;;;;;;4860764;29;20044;-92
2022/03/07 00:06:01;;;;;;;9.95;4.07;;;1.80;99.90;;;;;;4860828;29;20030;-89
2022/03/07 00:08:28;;;;;;;14.85;4.60;;;1.80;99.90;;;;;;4860931;29;20026;-92
2022/03/07 00:10:53;;;;;;;13.88;4.65;;;1.80;99.90;;;;;;4861480;29;20022;-92
2022/03/07 00:13:19;;;;;;;12.40;4.68;;;1.80;99.90;;;;;;4861858;29;20052;-91
2022/03/07 00:15:45;;;;;;;11.40;4.05;;;1.70;99.90;;;;;;4860765;29;20030;-92
2022/03/07 00:18:11;;;;;;;14.15;4.60;;;1.70;99.90;;;;;;4861997;29;20994;-91
2022/03/07 00:20:37;;;;;;;15.27;4.57;;;1.70;99.90;;;;;;4860891;29;20061;-92
2022/03/07 00:23:02;;;;;;;22.02;4.90;;;1.60;99.90;;;;;;4860822;29;20087;-92
2022/03/07 00:25:28;;;;;;;11.25;4.47;;;1.60;99.90;;;;;;4861001;29;20053;-91
2022/03/07 00:27:54;;;;;;;16.27;4.68;;;1.60;99.90;;;;;;4860623;29;20057;-91
2022/03/07 00:30:21;;;;;;;16.63;5.22;;;1.60;99.90;;;;;;4860380;29;20033;-91
2022/03/07 00:32:47;;;;;;;17.95;5.32;;;1.60;99.90;;;;;;4860534;29;20087;-91
2022/03/07 00:35:14;;;;;;;23.20;5.57;;;1.60;99.90;;;;;;4860496;29;20045;-92
2022/03/07 00:37:40;;;;;;;11.73;4.57;;;1.60;99.90;;;;;;4860313;29;20480;-90
2022/03/07 00:40:09;;;;;;;15.77;5.40;;;1.60;99.90;;;;;;4859720;29;20037;-91
2022/03/07 00:42:38;;;;;;;16.27;5.65;;;1.60;99.90;;;;;;4860432;29;20052;-91
2022/03/07 00:45:06;;;;;;;19.25;5.22;;;1.60;99.90;;;;;;4860087;29;20044;-90
2022/03/07 00:47:34;;;;;;;22.02;5.80;;;1.60;99.90;;;;;;4860290;29;20475;-91
2022/03/07 00:50:00;;;;;;;18.95;5.55;;;1.50;99.90;;;;;;4859920;29;20029;-91
2022/03/07 00:52:26;;;;;;;17.30;8.18;;;1.50;99.90;;;;;;4859726;29;20041;-91
2022/03/07 00:54:51;;;;;;;22.42;6.45;;;1.40;99.90;;;;;;4861110;29;20034;-90
2022/03/07 00:57:17;;;;;;;15.95;5.93;;;1.40;99.90;;;;;;4860109;29;20033;-91
2022/03/07 00:59:43;;;;;;;16.05;6.20;;;1.40;99.90;;;;;;4859967;29;20388;-91
2022/03/07 01:02:10;;;;;;;16.75;5.25;;;1.40;99.90;;;;;;4859809;29;20025;-91
2022/03/07 01:04:36;;;;;;;21.20;6.57;;;1.40;99.90;;;;;;4859785;29;20030;-89
2022/03/07 01:07:02;;;;;;;10.60;5.47;;;1.40;99.90;;;;;;4859946;29;20499;-89
2022/03/07 01:09:27;;;;;;;16.95;5.07;;;1.40;99.90;;;;;;4859565;29;20037;-91
2022/03/07 01:11:53;;;;;;;12.40;4.97;;;1.30;99.90;;;;;;4859851;29;20033;-89
2022/03/07 01:14:19;;;;;;;13.07;5.00;;;1.40;99.90;;;;;;4859358;29;20551;-91
2022/03/07 01:16:45;;;;;;;12.88;4.88;;;1.40;99.90;;;;;;4859770;29;20075;-91
2022/03/07 01:19:10;;;;;;;13.65;5.70;;;1.40;99.90;;;;;;4860960;29;20051;-94
2022/03/07 01:21:39;;;;;;;13.88;4.97;;;1.40;99.90;;;;;;4859416;29;20057;-89
2022/03/07 01:24:05;;;;;;;12.73;5.82;;;1.30;99.90;;;;;;4860016;29;20508;-91
2022/03/07 01:26:30;;;;;;;15.75;5.45;;;1.40;99.90;;;;;;4859995;29;20110;-89
2022/03/07 01:28:56;;;;;;;13.45;4.50;;;1.40;99.90;;;;;;4859364;29;20045;-91
2022/03/07 01:31:22;;;;;;;22.33;5.13;;;1.40;99.90;;;;;;4859733;29;20081;-90
2022/03/07 01:33:47;;;;;;;13.90;4.72;;;1.30;99.90;;;;;;4859490;29;20042;-90
2022/03/07 01:36:13;;;;;;;11.80;4.10;;;1.40;99.90;;;;;;4859729;29;20033;-93
2022/03/07 01:38:39;;;;;;;19.50;6.25;;;1.40;99.90;;;;;;4859722;29;20395;-93
2022/03/07 01:41:04;;;;;;;19.27;5.90;;;1.40;99.90;;;;;;4859837;29;20395;-91
2022/03/07 01:43:30;;;;;;;17.33;5.70;;;1.50;99.90;;;;;;4859824;29;20036;-90
2022/03/07 01:45:56;;;;;;;22.20;5.78;;;1.60;99.90;;;;;;4860853;29;20030;-91
2022/03/07 01:48:21;;;;;;;25.83;7.00;;;1.60;99.90;;;;;;4859266;29;20128;-92
2022/03/07 01:50:48;;;;;;;19.38;5.68;;;1.60;99.90;;;;;;4860828;29;20068;-93
2022/03/07 01:53:14;;;;;;;15.98;5.63;;;1.60;99.90;;;;;;4862701;29;20037;-91
2022/03/07 01:55:40;;;;;;;23.23;6.13;;;1.70;99.90;;;;;;4862804;29;20154;-89
2022/03/07 01:58:05;;;;;;;16.48;6.03;;;1.70;99.90;;;;;;4862882;29;20052;-91
2022/03/07 02:00:32;;;;;;;17.60;6.70;;;1.70;99.90;;;;;;4862880;29;20096;-89
2022/03/07 02:02:58;;;;;;;16.10;5.93;;;1.80;99.90;;;;;;4862309;29;20215;-91
2022/03/07 02:05:24;;;;;;;13.38;5.13;;;1.80;99.90;;;;;;4862328;29;20064;-91
2022/03/07 02:07:49;;;;;;;20.05;5.70;;;1.80;99.90;;;;;;4862845;29;20037;-91
2022/03/07 02:10:15;;;;;;;20.00;5.05;;;1.80;99.90;;;;;;4862767;29;20033;-91
2022/03/07 02:12:41;;;;;;;18.92;4.57;;;1.80;99.90;;;;;;4862203;29;20037;-90
2022/03/07 02:15:08;;;;;;;17.70;5.22;;;1.80;99.90;;;;;;4862120;29;20061;-89
2022/03/07 02:17:34;;;;;;;16.27;5.93;;;1.80;99.90;;;;;;4862539;29;20072;-88
2022/03/07 02:20:00;;;;;;;19.60;6.25;;;1.80;99.90;;;;;;4862247;29;20061;-91
2022/03/07 02:22:25;;;;;;;18.30;5.35;;;1.80;99.90;;;;;;4862128;29;20069;-91
2022/03/07 02:24:51;;;;;;;16.67;4.55;;;1.80;99.90;;;;;;4862183;29;20025;-91
2022/03/07 02:27:18;;;;;;;17.15;6.40;;;1.80;99.90;;;;;;4861868;29;20037;-90
2022/03/07 02:29:45;;;;;;;17.73;5.72;;;1.80;99.90;;;;;;4862136;29;20030;-91
2022/03/07 02:32:12;;;;;;;16.15;5.95;;;1.80;99.90;;;;;;4862010;29;20063;-91
2022/03/07 02:34:37;;;;;;;14.70;4.85;;;1.80;99.90;;;;;;4862014;29;20124;-90
2022/03/07 02:37:04;;;;;;;17.08;5.20;;;1.70;99.90;;;;;;4862267;29;20065;-90
2022/03/07 02:39:29;;;;;;;12.80;5.20;;;1.80;99.90;;;;;;4862277;29;20034;-91
2022/03/07 02:41:55;;;;;;;25.15;7.00;;;1.70;99.90;;;;;;4862202;29;20543;-90
2022/03/07 02:44:21;;;;;;;21.55;6.63;;;1.70;99.90;;;;;;4861973;29;20034;-91
2022/03/07 02:46:47;;;;;;;14.48;5.20;;;1.60;99.90;;;;;;4863548;29;20045;-90
2022/03/07 02:49:13;;;;;;;14.18;5.38;;;1.60;99.90;;;;;;4862413;29;20056;-92
2022/03/07 02:51:39;;;;;;;17.05;6.70;;;1.60;99.90;;;;;;4862034;29;20037;-90
2022/03/07 02:54:05;;;;;;;15.75;5.72;;;1.60;99.90;;;;;;4862376;29;20104;-92
2022/03/07 02:56:31;;;;;;;14.43;5.93;;;1.70;99.90;;;;;;4862642;29;20466;-91
2022/03/07 03:09:08;;;;;;;11.75;5.05;;;1.70;99.90;;;;;;4887238;29;20071;-90
2022/03/07 03:11:34;;;;;;;15.68;5.47;;;1.80;99.90;;;;;;4886567;29;20450;-90
2022/03/07 03:13:59;;;;;;;14.63;5.38;;;1.80;99.90;;;;;;4884570;29;20029;-91
2022/03/07 03:16:25;;;;;;;20.63;5.63;;;1.70;99.90;;;;;;4884073;29;20033;-91
2022/03/07 03:18:51;;;;;;;16.27;5.70;;;1.80;99.90;;;;;;4881486;29;20624;-90
2022/03/07 03:21:20;;;;;;;14.65;4.85;;;1.70;99.90;;;;;;4882309;29;20057;-92
2022/03/07 03:23:47;;;;;;;13.90;5.07;;;1.70;99.90;;;;;;4882871;29;20044;-91
2022/03/07 03:26:13;;;;;;;17.55;5.45;;;1.70;99.90;;;;;;4883252;29;20116;-92
2022/03/07 03:28:39;;;;;;;19.38;6.35;;;1.70;99.90;;;;;;4881820;29;20542;-89
2022/03/07 03:31:05;;;;;;;11.85;5.18;;;1.70;99.90;;;;;;4881301;29;20105;-92
2022/03/07 03:33:31;;;;;;;15.93;5.00;;;1.70;99.90;;;;;;4881782;29;20041;-92
2022/03/07 03:35:56;;;;;;;6.80;3.13;;;1.70;99.90;;;;;;4881368;29;20033;-90
2022/03/07 03:38:22;;;;;;;14.18;2.90;;;1.70;99.90;;;;;;4881530;29;20120;-92
2022/03/07 03:40:48;;;;;;;9.00;3.10;;;1.60;99.90;;;;;;4881435;29;20033;-90
2022/03/07 03:43:13;;;;;;;12.60;2.50;;;1.60;99.90;;;;;;4881322;29;20025;-92
2022/03/07 03:45:39;;;;;;;5.43;2.42;;;1.60;99.90;;;;;;4880671;29;20332;-92
2022/03/07 03:48:05;;;;;;;13.43;2.67;;;1.60;99.90;;;;;;4881202;29;20021;-91
2022/03/07 03:50:31;;;;;;;7.88;2.20;;;1.50;99.90;;;;;;4880630;29;20073;-91
2022/03/07 03:52:56;;;;;;;8.23;1.60;;;1.60;99.90;;;;;;4880973;29;20029;-91
2022/03/07 03:55:22;;;;;;;6.07;2.17;;;1.50;99.90;;;;;;4880497;29;20120;-91
2022/03/07 03:57:48;;;;;;;5.32;1.88;;;1.50;99.90;;;;;;4881076;29;20474;-91
2022/03/07 04:00:16;;;;;;;6.28;2.30;;;1.50;99.90;;;;;;4880329;29;20072;-92
2022/03/07 04:02:42;;;;;;;9.55;2.38;;;1.50;99.90;;;;;;4880871;29;20131;-91
2022/03/07 04:05:10;;;;;;;9.45;3.00;;;1.50;99.90;;;;;;4880176;29;20029;-91
2022/03/07 04:07:36;;;;;;;9.10;2.75;;;1.50;99.90;;;;;;4880807;29;20503;-91
2022/03/07 04:10:05;;;;;;;17.08;5.43;;;1.40;99.90;;;;;;4880949;29;20033;-91
2022/03/07 04:12:30;;;;;;;11.82;4.35;;;1.50;99.90;;;;;;4880821;29;20033;-92
2022/03/07 04:14:56;;;;;;;9.77;4.22;;;1.50;99.90;;;;;;4880876;29;20041;-92
2022/03/07 04:17:21;;;;;;;9.95;3.97;;;1.50;99.90;;;;;;4882869;29;20388;-91
2022/03/07 04:19:47;;;;;;;12.65;4.15;;;1.50;99.90;;;;;;4880980;29;20413;-91
2022/03/07 04:22:13;;;;;;;16.70;5.00;;;1.50;99.90;;;;;;4880594;29;20029;-92
2022/03/07 04:24:39;;;;;;;18.67;4.10;;;1.50;99.90;;;;;;4880619;29;20144;-91
2022/03/07 04:27:05;;;;;;;11.55;4.18;;;1.40;99.90;;;;;;4879965;29;20033;-91
2022/03/07 04:29:30;;;;;;;11.90;4.20;;;1.50;99.90;;;;;;4881417;29;20501;-91
2022/03/07 04:31:56;;;;;;;20.20;4.68;;;1.50;99.90;;;;;;4880049;29;20029;-92
2022/03/07 04:34:23;;;;;;;12.88;4.63;;;1.40;99.90;;;;;;4879751;29;20033;-91
2022/03/07 04:36:50;;;;;;;11.70;4.93;;;1.40;99.90;;;;;;4882919;29;20060;-92
2022/03/07 04:39:15;;;;;;;16.27;5.70;;;1.40;99.90;;;;;;4879954;29;20093;-92
2022/03/07 04:41:43;;;;;;;20.50;6.38;;;1.50;99.90;;;;;;4880209;29;20037;-91
2022/03/07 04:44:09;;;;;;;13.02;6.07;;;1.40;99.90;;;;;;4879856;29;20189;-91
2022/03/07 04:46:34;;;;;;;16.75;5.55;;;1.40;99.90;;;;;;4879958;29;20137;-92
2022/03/07 04:49:00;;;;;;;15.38;5.47;;;1.40;99.90;;;;;;4879589;29;20021;-92
2022/03/07 04:51:26;;;;;;;16.20;5.07;;;1.40;99.90;;;;;;4880037;29;20037;-91
2022/03/07 04:53:53;;;;;;;12.80;5.05;;;1.40;99.90;;;;;;4879691;29;20124;-91
2022/03/07 04:56:18;;;;;;;16.63;4.53;;;1.30;99.90;;;;;;4880166;29;20416;-92
2022/03/07 04:58:44;;;;;;;11.25;4.40;;;1.40;99.90;;;;;;4880052;29;20173;-92
2022/03/07 05:01:10;;;;;;;10.75;3.58;;;1.40;99.90;;;;;;4880327;29;20136;-91
2022/03/07 05:03:37;;;;;;;8.32;3.42;;;1.40;99.90;;;;;;4879973;29;20025;-91
2022/03/07 05:06:03;;;;;;;13.35;5.15;;;1.40;99.90;;;;;;4880182;29;20546;-91
2022/03/07 05:08:28;;;;;;;11.30;3.63;;;1.40;99.90;;;;;;4880229;29;20048;-91
2022/03/07 05:10:54;;;;;;;13.35;3.78;;;1.40;99.90;;;;;;4880164;29;20033;-92
2022/03/07 05:13:20;;;;;;;15.73;5.10;;;1.40;99.90;;;;;;4880192;29;20029;-91
2022/03/07 05:15:45;;;;;;;10.93;4.30;;;1.50;99.90;;;;;;4879839;29;20037;-92
2022/03/07 05:18:13;;;;;;;12.70;4.50;;;1.40;99.90;;;;;;4880532;29;20040;-92
2022/03/07 05:20:39;;;;;;;12.88;3.80;;;1.40;99.90;;;;;;4879908;29;20160;-90
2022/03/07 05:23:04;;;;;;;10.18;4.07;;;1.40;99.90;;;;;;4880315;29;20077;-89
2022/03/07 05:25:30;;;;;;;12.63;4.40;;;1.40;99.90;;;;;;4881244;29;20086;-92
2022/03/07 05:27:56;;;;;;;16.50;4.50;;;1.50;99.90;;;;;;4883492;29;20390;-90
2022/03/07 05:30:23;;;;;;;14.40;4.35;;;1.60;99.90;;;;;;4883418;29;20406;-93
2022/03/07 05:32:51;;;;;;;17.05;5.47;;;1.50;99.90;;;;;;4884378;29;20037;-92
2022/03/07 05:35:18;;;;;;;16.90;4.45;;;1.50;99.90;;;;;;4883262;29;20052;-93
2022/03/07 05:37:44;;;;;;;12.07;4.40;;;1.50;99.90;;;;;;4884010;29;20056;-92
2022/03/07 05:40:11;;;;;;;14.55;4.93;;;1.50;99.90;;;;;;4882903;29;20432;-91
2022/03/07 05:42:38;;;;;;;12.30;5.47;;;1.40;99.90;;;;;;4882030;29;20051;-92
2022/03/07 05:45:06;;;;;;;18.35;4.95;;;1.40;99.90;;;;;;4881859;29;20029;-92
2022/03/07 05:47:32;;;;;;;17.42;5.22;;;1.40;99.90;;;;;;4882253;29;20033;-92
2022/03/07 05:49:57;;;;;;;17.65;5.10;;;1.40;99.90;;;;;;4881897;29;20526;-90
2022/03/07 05:52:24;;;;;;;18.60;5.25;;;1.40;99.90;;;;;;4881571;29;20021;-90
2022/03/07 05:54:50;;;;;;;11.75;5.28;;;1.40;99.90;;;;;;4881974;29;20045;-92
2022/03/07 05:57:16;;;;;;;13.27;5.65;;;1.40;99.90;;;;;;4882209;29;20490;-92
2022/03/07 05:59:41;;;;;;;16.10;5.55;;;1.30;99.90;;;;;;4881986;29;20124;-92
2022/03/07 06:02:07;;;;;;;18.10;5.70;;;1.40;99.90;;;;;;4882256;29;20029;-91
2022/03/07 06:04:33;;;;;;;22.63;5.47;;;1.40;99.90;;;;;;4883156;29;20124;-91
2022/03/07 06:06:59;;;;;;;13.48;4.80;;;1.40;99.90;;;;;;4881405;29;20025;-92
2022/03/07 06:09:24;;;;;;;15.60;4.65;;;1.50;99.90;;;;;;4883396;29;20040;-92
2022/03/07 06:11:50;;;;;;;17.95;5.63;;;1.40;99.90;;;;;;4884136;29;20108;-93
2022/03/07 06:14:16;;;;;;;21.80;4.78;;;1.50;99.90;;;;;;4881849;29;20041;-93
2022/03/07 06:16:41;;;;;;;15.90;4.93;;;1.50;99.90;;;;;;4881993;29;20486;-92
2022/03/07 06:19:07;;;;;;;21.02;6.07;;;1.50;99.90;;;;;;4882323;29;20043;-91
2022/03/07 06:21:33;;;;;;;15.00;6.32;;;1.40;99.90;;;;;;4882239;29;20063;-93
2022/03/07 06:23:58;;;;;;;22.02;6.25;;;1.40;99.90;;;;;;4881845;29;20055;-92
2022/03/07 06:26:24;;;;;;;17.65;5.28;;;1.40;99.90;;;;;;4879393;29;20029;-93
2022/03/07 06:28:50;;;;;;;20.05;5.25;;;1.50;99.90;;;;;;4883230;29;20036;-93
2022/03/07 06:31:16;;;;;;;18.38;5.35;;;1.50;99.90;;;;;;4882715;29;20132;-92
2022/03/07 06:33:42;;;;;;;22.80;5.20;;;1.50;99.90;;;;;;4882601;29;20067;-94
2022/03/07 06:36:08;;;;;;;13.60;4.68;;;1.50;99.90;;;;;;4882529;29;20116;-93
2022/03/07 06:38:34;;;;;;;12.77;4.60;;;1.60;99.90;;;;;;4866573;29;20056;-92
2022/03/07 06:41:00;;;;;;;12.10;4.93;;;1.60;99.90;;;;;;4882339;29;20108;-92
2022/03/07 06:43:26;;;;;;;15.15;4.22;;;1.60;99.90;;;;;;4882806;29;20495;-92
2022/03/07 06:45:52;;;;;;;22.15;5.93;;;1.60;99.90;;;;;;4882256;29;20100;-93
2022/03/07 06:48:18;;;;;;;17.38;5.53;;;1.60;99.90;;;;;;4882263;29;20089;-93
2022/03/07 06:50:44;;;;;;;16.88;6.93;;;1.60;99.90;;;;;;4882183;29;20029;-92
2022/03/07 06:53:10;;;;;;;18.48;6.60;;;1.70;99.90;;;;;;4882711;29;20587;-91
2022/03/07 06:55:35;;;;;;;24.48;7.25;;;1.70;99.90;;;;;;4882670;29;20052;-91
2022/03/07 06:58:01;;;;;;;22.05;6.60;;;1.70;99.90;;;;;;4882649;29;20041;-91
2022/03/07 07:00:28;;;;;;;16.35;5.85;;;1.70;99.90;;;;;;4882362;29;20055;-93
2022/03/07 07:02:54;;;;;;;16.90;6.05;;;1.70;99.90;;;;;;4882159;29;20494;-94
2022/03/07 07:05:19;;;;;;;19.40;5.82;;;1.70;99.90;;;;;;4880804;29;20076;-94
2022/03/07 07:07:45;;;;;;;14.52;6.13;;;1.70;99.90;;;;;;4880943;29;20048;-93
2022/03/07 07:10:12;;;;;;;19.92;5.80;;;1.70;99.90;;;;;;4881218;29;20033;-92
2022/03/07 07:12:38;;;;;;;17.85;6.22;;;1.70;99.90;;;;;;4881079;29;20033;-92
2022/03/07 07:15:06;;;;;;;25.02;6.55;;;1.80;99.90;;;;;;4881259;29;20572;-92
2022/03/07 07:17:32;;;;;;;20.90;6.40;;;1.80;99.90;;;;;;4881315;29;20383;-94
2022/03/07 07:19:58;;;;;;;20.88;6.07;;;1.80;99.90;;;;;;4881384;29;20123;-93
2022/03/07 07:22:23;;;;;;;19.48;6.00;;;1.80;99.90;;;;;;4881578;29;20060;-92
2022/03/07 07:24:49;;;;;;;23.45;6.18;;;1.80;99.90;;;;;;4882411;29;20459;-92
2022/03/07 07:27:15;;;;;;;26.58;8.43;;;1.80;99.90;;;;;;4882725;29;20112;-94
2022/03/07 07:29:41;;;;;;;24.63;6.78;;;1.90;99.90;;;;;;4883003;29;20039;-93
2022/03/07 07:32:07;;;;;;;16.27;6.32;;;1.90;99.90;;;;;;4881002;29;20037;-94
2022/03/07 07:34:32;;;;;;;25.55;7.15;;;1.90;99.90;;;;;;4881834;29;20104;-94
2022/03/07 07:36:58;;;;;;;16.75;6.35;;;2.00;99.90;;;;;;4880860;29;20116;-92
2022/03/07 07:39:23;;;;;;;27.38;8.50;;;2.00;99.90;;;;;;4880861;29;20096;-93
2022/03/07 07:41:49;;;;;;;25.15;8.25;;;2.00;99.90;;;;;;4880455;29;20467;-92
2022/03/07 07:44:16;;;;;;;27.58;9.13;;;2.00;99.90;;;;;;4879540;29;20056;-92
2022/03/07 07:46:42;;;;;;;19.38;7.13;;;2.00;99.90;;;;;;4880335;29;20029;-92
2022/03/07 07:49:08;;;;;;;21.20;7.30;;;2.00;99.90;;;;;;4898109;29;20033;-92
2022/03/07 07:51:34;;;;;;;18.08;6.82;;;2.00;99.90;;;;;;4896812;29;20028;-91
2022/03/07 07:54:00;;;;;;;13.68;6.05;;;2.00;99.90;;;;;;4897737;29;20044;-91
2022/03/07 07:56:28;;;;;;;16.05;5.65;;;2.00;99.90;;;;;;4898586;29;20025;-91
2022/03/07 07:58:54;;;;;;;15.73;5.95;;;2.10;99.90;;;;;;4899894;29;20041;-91
2022/03/07 08:01:20;;;;;;;16.10;5.63;;;2.10;99.90;;;;;;4901601;29;20061;-91
2022/03/07 08:03:45;;;;;;;17.17;5.25;;;2.20;99.90;;;;;;4903239;29;20084;-92
2022/03/07 08:06:11;;;;;;;19.40;6.63;;;2.30;99.90;;;;;;4901266;29;20037;-90
2022/03/07 08:08:37;;;;;;;15.85;4.00;;;2.30;99.90;;;;;;4894475;29;20037;-92
2022/03/07 08:11:03;;;;;;;13.75;6.63;;;2.40;99.90;;;;;;4886883;29;20025;-93
2022/03/07 08:13:28;;;;;;;18.30;6.75;;;2.50;99.90;;;;;;4885531;29;20076;-93
2022/03/07 08:15:55;;;;;;;20.95;6.35;;;2.50;99.90;;;;;;4883931;29;20029;-92
2022/03/07 08:18:21;;;;;;;17.13;5.22;;;2.60;99.90;;;;;;4883763;29;20029;-92
2022/03/07 08:20:47;;;;;;;15.50;4.35;;;2.70;99.90;;;;;;4882925;29;20037;-94
2022/03/07 08:23:12;;;;;;;14.82;5.50;;;2.70;99.90;;;;;;4881004;29;20029;-93
2022/03/07 08:25:38;;;;;;;15.00;5.25;;;2.80;99.90;;;;;;4879381;29;20028;-93
2022/03/07 08:28:04;;;;;;;13.90;3.70;;;2.90;99.90;;;;;;4880869;29;20041;-93
2022/03/07 08:30:30;;;;;;;10.52;3.22;;;2.90;99.90;;;;;;4880566;29;20037;-92
2022/03/07 08:32:56;;;;;;;8.57;2.90;;;3.00;99.90;;;;;;4882119;29;20424;-93
2022/03/07 08:45:25;;;;;;;16.58;2.67;;;3.40;99.90;;;;;;4985427;23;20053;-93
2022/03/07 08:47:52;;;;;;;10.90;2.53;;;3.50;99.90;;;;;;4898199;29;20028;-91
2022/03/07 08:50:18;;;;;;;9.20;2.20;;;3.60;99.90;;;;;;4883068;29;20049;-92
2022/03/07 08:52:45;;;;;;;10.27;2.20;;;3.60;99.90;;;;;;4893803;29;20451;-91
2022/03/07 08:55:11;;;;;;;8.45;1.73;;;3.70;99.90;;;;;;4875013;29;20124;-93
2022/03/07 08:57:37;;;;;;;11.80;2.53;;;3.70;99.90;;;;;;4881394;29;20127;-93
2022/03/07 09:00:07;;;;;;;5.43;2.00;;;3.80;99.90;;;;;;4879603;29;20112;-93
2022/03/07 09:02:32;;;;;;;7.47;2.03;;;3.90;99.90;;;;;;4880976;29;20032;-93
2022/03/07 09:04:58;;;;;;;4.88;2.17;;;3.90;99.90;;;;;;4881640;29;20037;-92
2022/03/07 09:07:27;;;;;;;12.68;2.42;;;4.00;99.90;;;;;;4879824;29;20602;-93
2022/03/07 09:09:53;;;;;;;9.18;2.78;;;4.00;99.90;;;;;;4880205;29;20037;-94
2022/03/07 09:12:18;;;;;;;9.85;2.25;;;4.10;99.90;;;;;;4880264;29;20128;-90
2022/03/07 09:14:44;;;;;;;10.55;2.75;;;4.10;99.90;;;;;;4888698;29;20043;-92
2022/03/07 09:17:10;;;;;;;8.00;2.40;;;4.20;99.90;;;;;;4909065;29;20120;-93
2022/03/07 09:19:35;;;;;;;7.15;2.45;;;4.20;99.90;;;;;;4896615;29;20063;-93
2022/03/07 09:22:01;;;;;;;16.45;3.83;;;4.20;99.90;;;;;;4875827;29;20037;-93
2022/03/07 09:24:27;;;;;;;8.55;2.30;;;4.30;99.90;;;;;;4879466;29;20029;-93
2022/03/07 09:26:52;;;;;;;10.48;2.58;;;4.30;99.90;;;;;;4863120;29;20123;-92
2022/03/07 09:29:18;;;;;;;11.65;2.63;;;4.30;99.90;;;;;;4880060;29;20044;-93
2022/03/07 09:31:44;;;;;;;10.38;2.80;;;4.30;99.90;;;;;;4896335;29;20053;-92
2022/03/07 09:34:12;;;;;;;6.82;3.03;;;4.40;99.90;;;;;;4895970;29;20061;-94
2022/03/07 09:36:38;;;;;;;10.10;2.70;;;4.30;99.90;;;;;;4896011;29;20021;-92
2022/03/07 09:39:05;;;;;;;9.15;2.53;;;4.40;99.90;;;;;;4895746;29;20033;-91
2022/03/07 09:41:31;;;;;;;10.93;2.63;;;4.40;99.90;;;;;;4891867;29;20120;-93
2022/03/07 09:43:56;;;;;;;11.18;3.15;;;4.40;99.90;;;;;;4893074;29;20059;-92
2022/03/07 09:46:22;;;;;;;11.23;3.22;;;4.50;99.90;;;;;;4894766;29;20522;-92
2022/03/07 09:48:48;;;;;;;9.52;2.67;;;4.50;99.90;;;;;;4895737;29;20033;-92
2022/03/07 09:51:14;;;;;;;13.13;3.30;;;4.50;99.90;;;;;;4892746;29;20029;-92
2022/03/07 09:53:39;;;;;;;10.32;2.95;;;4.60;99.90;;;;;;4879737;29;20475;-92
2022/03/07 09:56:05;;;;;;;10.40;3.08;;;4.60;99.90;;;;;;4880446;29;20044;-92
2022/03/07 09:58:31;;;;;;;16.65;2.72;;;4.70;99.90;;;;;;4882880;29;20039;-93
2022/03/07 10:01:10;;;;;;;10.27;2.90;;;4.70;99.90;;;;;;4886647;29;20032;-92
2022/03/07 10:03:35;;;;;;;11.05;3.10;;;4.80;99.90;;;;;;4879289;29;20033;-91
2022/03/07 10:06:09;;;;;;;11.60;3.05;;;4.80;99.90;;;;;;4880650;29;20399;-91
2022/03/07 10:08:35;;;;;;;8.40;2.67;;;4.80;99.90;;;;;;4880889;29;20025;-92
2022/03/07 10:11:10;;;;;;;8.10;2.97;;;4.90;99.90;;;;;;4876770;29;20025;-91
2022/03/07 10:13:36;;;;;;;9.70;3.00;;;4.90;99.90;;;;;;4893022;29;20049;-94
2022/03/07 10:16:06;;;;;;;11.95;3.03;;;5.00;99.90;;;;;;4877170;29;20076;-91
2022/03/07 10:18:32;;;;;;;12.10;2.72;;;5.00;99.90;;;;;;4875513;29;20367;-93
2022/03/07 10:21:00;;;;;;;13.75;3.20;;;5.10;99.90;;;;;;4898229;29;20144;-92
2022/03/07 10:23:27;;;;;;;13.05;2.58;;;5.10;99.90;;;;;;4898445;29;20475;-94
2022/03/07 10:26:05;;;;;;;9.98;2.45;;;5.20;99.90;;;;;;4879500;29;20080;-92
2022/03/07 10:28:36;;;;;;;9.98;3.63;;;5.30;99.90;;;;;;4889506;29;20029;-91
2022/03/07 10:31:14;;;;;;;7.38;2.10;;;5.30;99.90;;;;;;4875848;29;20048;-93
2022/03/07 10:33:40;;;;;;;14.93;2.30;;;5.40;99.90;;;;;;4875505;29;20497;-94
2022/03/07 10:36:07;;;;;;;9.23;2.75;;;5.50;99.90;;;;;;4890101;29;20046;-93
2022/03/07 10:38:33;;;;;;;10.65;2.30;;;5.60;99.90;;;;;;4887879;29;20153;-92
2022/03/07 10:40:58;;;;;;;11.43;2.08;;;5.70;99.90;;;;;;4887795;29;20070;-94
2022/03/07 10:43:24;;;;;;;8.77;2.55;;;5.80;99.90;;;;;;4888217;29;20117;-93
2022/03/07 10:46:01;;;;;;;7.22;2.55;;;5.80;99.90;;;;;;4889454;29;20049;-94
2022/03/07 10:48:41;;;;;;;12.30;3.55;;;5.80;99.90;;;;;;4875695;29;20053;-91
2022/03/07 10:51:15;;;;;;;12.75;2.95;;;5.70;99.90;;;;;;4881080;29;20124;-91
2022/03/07 10:53:41;;;;;;;15.25;3.30;;;5.70;99.90;;;;;;4894844;29;20490;-93
2022/03/07 10:56:08;;;;;;;14.75;3.25;;;5.70;99.90;;;;;;4903765;29;20040;-91
2022/03/07 10:58:44;;;;;;;12.95;3.80;;;5.60;99.90;;;;;;4897459;29;20028;-92
2022/03/07 11:01:10;;;;;;;14.63;3.90;;;5.70;99.90;;;;;;4888898;29;20033;-94
2022/03/07 11:03:38;;;;;;;11.70;3.05;;;5.70;99.90;;;;;;4886782;29;20036;-91
2022/03/07 11:06:04;;;;;;;12.68;4.03;;;6.00;99.90;;;;;;4886656;29;20022;-92
2022/03/07 11:08:31;;;;;;;9.57;3.05;;;6.20;99.90;;;;;;4883803;29;20030;-92
2022/03/07 11:10:58;;;;;;;9.13;2.90;;;6.50;99.90;;;;;;4860148;29;20031;-91
2022/03/07 11:13:27;;;;;;;11.75;3.08;;;6.70;99.90;;;;;;4887288;29;20025;-91
2022/03/07 11:16:03;;;;;;;13.50;3.42;;;6.80;99.90;;;;;;4888363;29;20040;-93
2022/03/07 11:18:31;;;;;;;11.07;3.00;;;6.80;99.90;;;;;;4887043;29;20021;-92
2022/03/07 11:21:04;;;;;;;12.00;3.22;;;6.80;99.90;;;;;;4868677;29;20094;-93
2022/03/07 11:23:30;;;;;;;11.02;3.47;;;6.90;99.90;;;;;;4874339;29;20025;-92
2022/03/07 11:25:58;;;;;;;10.30;2.63;;;6.80;99.90;;;;;;4864555;29;20149;-91
2022/03/07 11:28:29;;;;;;;9.88;2.90;;;6.90;99.90;;;;;;4871997;29;20552;-92
2022/03/07 11:30:55;;;;;;;10.95;3.05;;;6.90;99.90;;;;;;4876078;29;20587;-93
2022/03/07 11:33:37;;;;;;;11.32;3.13;;;7.10;99.90;;;;;;4862493;29;20120;-91
2022/03/07 11:36:05;;;;;;;9.30;2.33;;;7.10;99.90;;;;;;4857903;29;20048;-92
2022/03/07 11:38:31;;;;;;;15.77;3.00;;;7.10;99.90;;;;;;4867565;29;20021;-92
2022/03/07 11:41:01;;;;;;;10.75;2.67;;;7.10;99.90;;;;;;4874527;29;20035;-93
2022/03/07 11:43:32;;;;;;;9.60;2.20;;;7.10;99.90;;;;;;4861901;29;20072;-91
2022/03/07 11:46:01;;;;;;;8.38;1.75;;;7.10;99.90;;;;;;4876317;29;20136;-90
2022/03/07 11:48:31;;;;;;;11.68;2.17;;;7.10;99.90;;;;;;4873586;29;20717;-91
2022/03/07 11:50:57;;;;;;;5.68;1.90;;;7.00;99.90;;;;;;4877047;29;20057;-92
2022/03/07 11:53:25;;;;;;;6.85;2.50;;;7.00;99.90;;;;;;4896379;29;20033;-92
2022/03/07 11:55:51;;;;;;;7.25;2.75;;;6.90;99.90;;;;;;4896182;29;20072;-92
2022/03/07 11:58:32;;;;;;;11.45;2.58;;;6.90;99.90;;;;;;4876927;29;20048;-91
2022/03/07 12:01:06;;;;;;;14.18;2.30;;;6.80;99.90;;;;;;4862205;29;20044;-91
2022/03/07 12:03:34;;;;;;;9.32;2.15;;;6.70;99.90;;;;;;4881398;29;20036;-92
2022/03/07 12:06:06;;;;;;;10.75;3.00;;;6.60;99.90;;;;;;4869137;29;20041;-92
2022/03/07 12:08:51;;;;;;;12.13;2.10;;;6.60;99.90;;;;;;4871373;29;20027;-93
2022/03/07 12:11:27;;;;;;;6.25;2.33;;;6.50;99.90;;;;;;4869534;29;20033;-92
2022/03/07 12:13:55;;;;;;;9.77;2.28;;;6.60;99.90;;;;;;4883474;29;20042;-93
2022/03/07 12:16:32;;;;;;;7.03;2.65;;;6.60;99.90;;;;;;4870982;29;20048;-91
2022/03/07 12:19:11;;;;;;;10.65;2.70;;;6.60;99.90;;;;;;4880000;29;20013;-90
2022/03/07 12:21:42;;;;;;;9.25;2.67;;;6.70;99.90;;;;;;4893811;29;20026;-92
2022/03/07 12:24:11;;;;;;;9.63;2.72;;;6.60;99.90;;;;;;4900987;29;20032;-92
2022/03/07 12:26:56;;;;;;;13.73;3.17;;;6.60;99.90;;;;;;4901920;29;20037;-90
2022/03/07 12:29:24;;;;;;;9.68;3.35;;;6.60;99.90;;;;;;4897363;29;20045;-91
2022/03/07 12:32:05;;;;;;;11.60;3.42;;;6.70;99.90;;;;;;4890514;29;20025;-90
2022/03/07 12:34:34;;;;;;;7.47;3.78;;;6.80;99.90;;;;;;4891578;29;20041;-92
2022/03/07 12:37:12;;;;;;;12.13;3.67;;;7.10;99.90;;;;;;4887274;29;20043;-91
2022/03/07 12:40:03;;;;;;;9.10;3.17;;;7.20;99.90;;;;;;4868890;29;20124;-92
2022/03/07 12:42:34;;;;;;;8.73;3.28;;;7.20;99.90;;;;;;4877770;29;20149;-92
2022/03/07 12:45:00;;;;;;;;;;;7.20;99.90;;;;;;4882069;29;20061;-91
2022/03/07 12:47:32;;;;;;;7.82;2.45;;;7.20;99.90;;;;;;4884706;29;19920;-92
2022/03/07 12:49:59;;;;;;;11.15;3.35;;;7.10;99.90;;;;;;4884860;29;20033;-92
2022/03/07 12:52:30;;;;;;;9.23;2.33;;;7.00;99.90;;;;;;4882938;29;21194;-92
2022/03/07 12:54:57;;;;;;;7.20;2.38;;;7.00;99.90;;;;;;4870242;29;20037;-91
2022/03/07 12:57:25;;;;;;;11.85;2.53;;;7.00;99.90;;;;;;4884435;29;20490;-92
2022/03/07 13:00:11;;;;;;;6.22;1.90;;;7.00;99.90;;;;;;4869525;29;20033;-89
2022/03/07 13:02:39;;;;;;;14.25;3.15;;;7.10;99.90;;;;;;4880716;29;20030;-93
2022/03/07 13:05:09;;;;;;;4.45;1.92;;;7.20;99.90;;;;;;4865557;29;20029;-91
2022/03/07 13:07:35;;;;;;;8.77;2.15;;;7.20;99.90;;;;;;4872603;29;20033;-93